Time;durP1;ratioP1;P1;durP2;ratioP2;P2;SDS_P1;SDS_P2;PMS_P1;PMS_P2;Temp;Humidity;BMP_temperature;BMP_pressure;BME280_temperature;BME280_humidity;BME280_pressure;Samples;Min_cycle;Max_cycle;Signal;HPM_P1;HPM_P2
2023/08/07 00:00:38;;;;;;;1.30;1.00;;;;;;;;;;5061847;28;20527;-64
2023/08/07 00:03:04;;;;;;;0.93;0.93;;;;;;;;;;5061632;28;20223;-64
2023/08/07 00:05:30;;;;;;;1.20;0.95;;;;;;;;;;5061395;28;20268;-64
2023/08/07 00:07:57;;;;;;;3.17;1.00;;;;;;;;;;5061709;28;20415;-64
2023/08/07 00:10:25;;;;;;;4.50;1.20;;;;;;;;;;5061972;28;20201;-64
2023/08/07 00:12:51;;;;;;;3.55;0.90;;;;;;;;;;5061825;28;20441;-64
2023/08/07 00:15:17;;;;;;;2.25;1.20;;;;;;;;;;5061505;28;20205;-64
2023/08/07 00:17:44;;;;;;;1.52;1.05;;;;;;;;;;5061657;28;20201;-64
2023/08/07 00:20:10;;;;;;;1.02;1.02;;;;;;;;;;5061456;28;20201;-64
2023/08/07 00:22:36;;;;;;;1.73;1.00;;;;;;;;;;5061301;28;20217;-64
2023/08/07 00:25:03;;;;;;;1.52;1.27;;;;;;;;;;5061181;28;20217;-64
2023/08/07 00:27:30;;;;;;;2.92;1.00;;;;;;;;;;5061258;28;20217;-64
2023/08/07 00:29:57;;;;;;;0.85;0.85;;;;;;;;;;5061412;28;20208;-64
2023/08/07 00:32:23;;;;;;;2.33;1.10;;;;;;;;;;5061377;28;20212;-64
2023/08/07 00:34:49;;;;;;;1.60;0.93;;;;;;;;;;5064989;28;20524;-64
2023/08/07 00:37:15;;;;;;;2.53;0.95;;;;;;;;;;5065050;28;20423;-64
2023/08/07 00:39:42;;;;;;;0.85;0.85;;;;;;;;;;5065236;28;20512;-63
2023/08/07 00:42:08;;;;;;;2.90;1.15;;;;;;;;;;5065003;28;20259;-63
2023/08/07 00:44:36;;;;;;;4.45;1.38;;;;;;;;;;5064874;28;20276;-64
2023/08/07 00:47:02;;;;;;;2.78;1.13;;;;;;;;;;5064830;28;20213;-64
2023/08/07 00:49:29;;;;;;;3.85;1.20;;;;;;;;;;5064914;28;20215;-64
2023/08/07 00:51:55;;;;;;;4.22;1.20;;;;;;;;;;5064704;28;20212;-64
2023/08/07 00:54:21;;;;;;;2.53;1.10;;;;;;;;;;5064460;28;20201;-64
2023/08/07 00:56:47;;;;;;;1.98;0.88;;;;;;;;;;5064963;28;20429;-64
2023/08/07 00:59:14;;;;;;;1.08;0.98;;;;;;;;;;5064967;28;20208;-64
2023/08/07 01:01:42;;;;;;;1.98;1.55;;;;;;;;;;5064604;28;20219;-64
2023/08/07 01:04:08;;;;;;;2.00;0.95;;;;;;;;;;5064403;28;20588;-64
2023/08/07 01:06:34;;;;;;;2.28;0.93;;;;;;;;;;5064416;28;20193;-63
2023/08/07 01:09:00;;;;;;;2.08;1.38;;;;;;;;;;5064472;28;20205;-63
2023/08/07 01:11:34;;;;;;;2.00;1.27;;;;;;;;;;5064481;28;20201;-64
2023/08/07 01:14:01;;;;;;;2.05;1.10;;;;;;;;;;5064298;28;20208;-63
2023/08/07 01:16:29;;;;;;;2.85;1.23;;;;;;;;;;5064243;28;20201;-63
2023/08/07 01:18:58;;;;;;;4.50;1.00;;;;;;;;;;5064224;28;20208;-64
2023/08/07 01:21:24;;;;;;;1.50;1.20;;;;;;;;;;5064060;28;20215;-64
2023/08/07 01:23:51;;;;;;;2.83;1.10;;;;;;;;;;5064360;28;20488;-64
2023/08/07 01:26:19;;;;;;;2.55;1.35;;;;;;;;;;5064123;28;20201;-64
2023/08/07 01:28:48;;;;;;;2.97;1.10;;;;;;;;;;5063975;28;20277;-64
2023/08/07 01:31:15;;;;;;;3.17;1.40;;;;;;;;;;5063558;28;20500;-64
2023/08/07 01:33:44;;;;;;;1.50;1.05;;;;;;;;;;5064002;28;20235;-64
2023/08/07 01:36:11;;;;;;;2.35;1.02;;;;;;;;;;5064100;28;20228;-64
2023/08/07 01:38:38;;;;;;;2.30;1.10;;;;;;;;;;5055937;28;20193;-64
2023/08/07 01:41:06;;;;;;;1.05;1.00;;;;;;;;;;5064051;28;20216;-64
2023/08/07 01:43:32;;;;;;;1.63;1.13;;;;;;;;;;5063511;28;20248;-64
2023/08/07 01:45:59;;;;;;;4.05;1.20;;;;;;;;;;5062906;28;20208;-64
2023/08/07 01:48:25;;;;;;;1.73;1.23;;;;;;;;;;5063584;28;20205;-64
2023/08/07 01:50:53;;;;;;;1.95;1.05;;;;;;;;;;5063650;28;20204;-64
2023/08/07 01:53:19;;;;;;;1.38;0.90;;;;;;;;;;5063911;28;20197;-64
2023/08/07 01:55:46;;;;;;;1.20;1.15;;;;;;;;;;5063455;28;20205;-64
2023/08/07 01:58:13;;;;;;;3.53;1.00;;;;;;;;;;5063498;28;20201;-64
2023/08/07 02:00:39;;;;;;;1.50;1.15;;;;;;;;;;5055886;28;20197;-64
2023/08/07 02:03:06;;;;;;;1.77;1.23;;;;;;;;;;5063434;28;20217;-64
2023/08/07 02:05:32;;;;;;;2.13;1.20;;;;;;;;;;5063099;28;20204;-64
2023/08/07 02:07:58;;;;;;;1.00;0.90;;;;;;;;;;5063328;28;20207;-64
2023/08/07 02:10:25;;;;;;;2.63;1.33;;;;;;;;;;5063195;28;20527;-64
2023/08/07 02:12:51;;;;;;;1.40;1.20;;;;;;;;;;5063451;28;20243;-64
2023/08/07 02:15:19;;;;;;;1.30;1.15;;;;;;;;;;5063140;28;20201;-64
2023/08/07 02:17:45;;;;;;;2.70;1.20;;;;;;;;;;5063190;28;20243;-64
2023/08/07 02:20:11;;;;;;;1.30;1.20;;;;;;;;;;5063286;28;20201;-64
2023/08/07 02:22:38;;;;;;;3.20;1.30;;;;;;;;;;5062849;28;20251;-64
2023/08/07 02:25:04;;;;;;;2.08;1.38;;;;;;;;;;5062797;28;20201;-64
2023/08/07 02:27:31;;;;;;;1.27;1.10;;;;;;;;;;5063018;28;20227;-64
2023/08/07 02:29:57;;;;;;;1.40;1.00;;;;;;;;;;5063272;28;20212;-64
2023/08/07 02:32:25;;;;;;;1.73;1.13;;;;;;;;;;5062876;28;20235;-64
2023/08/07 02:34:51;;;;;;;2.78;0.95;;;;;;;;;;5062718;28;20201;-64
2023/08/07 02:37:17;;;;;;;3.92;1.27;;;;;;;;;;5062742;28;20504;-64
2023/08/07 02:39:44;;;;;;;2.05;1.05;;;;;;;;;;5062760;28;20201;-64
2023/08/07 02:42:10;;;;;;;2.60;1.15;;;;;;;;;;5062654;28;20227;-64
2023/08/07 02:44:36;;;;;;;1.80;1.40;;;;;;;;;;5062413;28;20197;-64
2023/08/07 02:47:02;;;;;;;3.90;1.38;;;;;;;;;;5062612;28;20213;-64
2023/08/07 02:49:30;;;;;;;1.83;1.25;;;;;;;;;;5062544;28;20208;-64
2023/08/07 02:51:56;;;;;;;2.45;1.02;;;;;;;;;;5062569;28;20207;-64
2023/08/07 02:54:23;;;;;;;1.92;1.25;;;;;;;;;;5062201;28;20201;-64
2023/08/07 02:56:49;;;;;;;2.33;1.20;;;;;;;;;;5062581;28;20377;-64
2023/08/07 02:59:15;;;;;;;1.88;1.20;;;;;;;;;;5062696;28;20397;-64
2023/08/07 03:01:42;;;;;;;5.03;1.38;;;;;;;;;;5054300;28;20201;-64
2023/08/07 03:04:08;;;;;;;1.48;1.38;;;;;;;;;;5062208;28;20248;-64
2023/08/07 03:06:36;;;;;;;3.63;1.60;;;;;;;;;;5062312;28;20215;-64
2023/08/07 03:09:02;;;;;;;1.85;1.15;;;;;;;;;;5062463;28;20209;-64
2023/08/07 03:11:28;;;;;;;2.42;1.40;;;;;;;;;;5062380;28;20208;-64
2023/08/07 03:13:54;;;;;;;2.97;1.60;;;;;;;;;;5062269;28;20208;-64
2023/08/07 03:16:21;;;;;;;1.50;1.20;;;;;;;;;;5062169;28;20207;-64
2023/08/07 03:18:47;;;;;;;1.30;1.23;;;;;;;;;;5062174;28;20201;-64
2023/08/07 03:21:14;;;;;;;1.85;1.25;;;;;;;;;;5062021;28;20208;-64
2023/08/07 03:23:41;;;;;;;5.50;1.70;;;;;;;;;;5061726;28;20224;-64
2023/08/07 03:26:08;;;;;;;1.70;1.23;;;;;;;;;;5062295;28;20211;-64
2023/08/07 03:28:35;;;;;;;3.03;1.35;;;;;;;;;;5062080;28;20221;-64
2023/08/07 03:31:01;;;;;;;2.33;1.33;;;;;;;;;;5062087;28;20223;-64
2023/08/07 03:33:27;;;;;;;1.73;1.30;;;;;;;;;;5061845;28;20427;-64
2023/08/07 03:35:54;;;;;;;4.97;1.33;;;;;;;;;;5061608;28;20201;-64
2023/08/07 03:38:20;;;;;;;5.38;1.50;;;;;;;;;;5062053;28;20201;-64
2023/08/07 03:40:48;;;;;;;5.72;1.40;;;;;;;;;;5062259;28;20193;-64
2023/08/07 03:43:14;;;;;;;2.05;1.40;;;;;;;;;;5061751;28;20229;-64
2023/08/07 03:45:40;;;;;;;5.35;1.30;;;;;;;;;;5061626;28;20378;-64
2023/08/07 03:48:07;;;;;;;4.10;1.60;;;;;;;;;;5061947;28;20446;-64
2023/08/07 03:50:36;;;;;;;1.40;1.30;;;;;;;;;;5061597;28;20201;-64
2023/08/07 03:53:03;;;;;;;6.70;1.58;;;;;;;;;;5061974;28;20235;-64
2023/08/07 03:55:29;;;;;;;8.68;1.58;;;;;;;;;;5061491;28;20201;-64
2023/08/07 03:57:57;;;;;;;4.50;1.38;;;;;;;;;;5062166;28;20227;-64
2023/08/07 04:00:23;;;;;;;4.25;1.90;;;;;;;;;;5061783;28;20382;-64
2023/08/07 04:02:49;;;;;;;4.07;1.70;;;;;;;;;;5061581;28;20228;-64
2023/08/07 04:05:16;;;;;;;7.60;1.63;;;;;;;;;;5061551;28;20219;-64
2023/08/07 04:07:42;;;;;;;4.53;1.20;;;;;;;;;;5062424;28;20512;-64
2023/08/07 04:10:09;;;;;;;4.25;2.05;;;;;;;;;;5065885;28;20268;-64
2023/08/07 04:12:35;;;;;;;5.85;1.67;;;;;;;;;;5065515;28;20376;-64
2023/08/07 04:15:02;;;;;;;3.70;1.42;;;;;;;;;;5065516;28;20204;-64
2023/08/07 04:17:29;;;;;;;3.65;1.35;;;;;;;;;;5065326;28;20208;-65
2023/08/07 04:19:55;;;;;;;3.00;1.30;;;;;;;;;;5065339;28;20208;-65
2023/08/07 04:22:21;;;;;;;2.05;1.40;;;;;;;;;;5065327;28;20201;-65
2023/08/07 04:24:47;;;;;;;3.47;1.35;;;;;;;;;;5065290;28;20201;-65
2023/08/07 04:27:14;;;;;;;4.43;1.67;;;;;;;;;;5065372;28;20224;-65
2023/08/07 04:29:40;;;;;;;2.88;1.33;;;;;;;;;;5065246;28;20208;-65
2023/08/07 04:32:08;;;;;;;3.78;1.55;;;;;;;;;;5065060;28;20272;-65
2023/08/07 04:34:35;;;;;;;5.43;1.58;;;;;;;;;;5065108;28;20205;-65
2023/08/07 04:37:01;;;;;;;2.13;1.50;;;;;;;;;;5065304;28;20512;-65
2023/08/07 04:39:27;;;;;;;4.22;1.40;;;;;;;;;;5065251;28;20265;-65
2023/08/07 04:41:54;;;;;;;1.35;1.20;;;;;;;;;;5065229;28;20201;-65
2023/08/07 04:44:20;;;;;;;2.35;1.67;;;;;;;;;;5064717;28;20217;-65
2023/08/07 04:46:46;;;;;;;2.10;1.13;;;;;;;;;;5064681;28;20205;-65
2023/08/07 04:49:14;;;;;;;4.00;1.40;;;;;;;;;;5065218;28;20204;-65
2023/08/07 04:51:40;;;;;;;2.38;1.42;;;;;;;;;;5064891;28;20197;-65
2023/08/07 04:54:06;;;;;;;2.78;1.60;;;;;;;;;;5064535;28;20200;-65
2023/08/07 04:56:33;;;;;;;3.70;1.38;;;;;;;;;;5064729;28;20201;-65
2023/08/07 04:59:00;;;;;;;4.47;1.65;;;;;;;;;;5064842;28;20197;-65
2023/08/07 05:01:26;;;;;;;4.90;1.88;;;;;;;;;;5064516;28;20573;-65
2023/08/07 05:03:53;;;;;;;3.70;1.55;;;;;;;;;;5064464;28;20221;-65
2023/08/07 05:06:20;;;;;;;2.35;1.65;;;;;;;;;;5064537;28;20203;-65
2023/08/07 05:08:46;;;;;;;3.22;1.40;;;;;;;;;;5064615;28;20456;-65
2023/08/07 05:11:13;;;;;;;1.85;1.15;;;;;;;;;;5064568;28;20481;-65
2023/08/07 05:13:39;;;;;;;7.97;1.65;;;;;;;;;;5064441;28;20199;-65
2023/08/07 05:16:05;;;;;;;3.47;1.42;;;;;;;;;;5064208;28;20212;-65
2023/08/07 05:18:32;;;;;;;4.80;1.20;;;;;;;;;;5064338;28;20197;-65
2023/08/07 05:20:58;;;;;;;3.45;1.30;;;;;;;;;;5064344;28;20497;-65
2023/08/07 05:23:25;;;;;;;1.95;1.50;;;;;;;;;;5064121;28;20447;-65
2023/08/07 05:25:52;;;;;;;4.68;1.52;;;;;;;;;;5064054;28;20208;-65
2023/08/07 05:28:18;;;;;;;2.10;1.13;;;;;;;;;;5064061;28;20247;-65
2023/08/07 05:30:45;;;;;;;3.42;1.45;;;;;;;;;;5063897;28;20209;-65
2023/08/07 05:33:11;;;;;;;6.80;1.58;;;;;;;;;;5064041;28;20199;-53
2023/08/07 05:35:38;;;;;;;2.15;1.25;;;;;;;;;;5053068;28;20220;-53
2023/08/07 05:38:04;;;;;;;4.68;1.38;;;;;;;;;;5055813;28;20247;-53
2023/08/07 05:40:34;;;;;;;5.85;1.73;;;;;;;;;;5055752;28;20224;-53
2023/08/07 05:43:00;;;;;;;7.00;1.50;;;;;;;;;;5055519;28;20295;-53
2023/08/07 05:45:26;;;;;;;3.45;1.48;;;;;;;;;;5055690;28;20205;-53
2023/08/07 05:47:52;;;;;;;2.15;1.33;;;;;;;;;;5041398;28;20205;-53
2023/08/07 05:50:19;;;;;;;1.83;1.42;;;;;;;;;;5050587;28;20213;-53
2023/08/07 05:52:45;;;;;;;1.80;1.58;;;;;;;;;;5047008;28;20220;-53
2023/08/07 05:55:11;;;;;;;1.60;1.50;;;;;;;;;;5043238;28;20201;-53
2023/08/07 05:57:39;;;;;;;2.28;1.35;;;;;;;;;;5047227;28;20429;-55
2023/08/07 06:00:07;;;;;;;3.20;1.50;;;;;;;;;;5047499;28;20210;-55
2023/08/07 06:02:33;;;;;;;3.40;1.55;;;;;;;;;;5047303;28;20272;-55
2023/08/07 06:05:00;;;;;;;5.18;1.35;;;;;;;;;;5044340;28;20552;-53
2023/08/07 06:07:26;;;;;;;3.50;1.52;;;;;;;;;;5056237;28;20208;-53
2023/08/07 06:09:52;;;;;;;1.95;1.40;;;;;;;;;;5053556;28;20209;-53
2023/08/07 06:12:18;;;;;;;2.35;1.60;;;;;;;;;;5056357;28;20209;-54
2023/08/07 06:14:46;;;;;;;5.93;1.20;;;;;;;;;;5056844;28;20209;-54
2023/08/07 06:17:12;;;;;;;2.58;1.33;;;;;;;;;;5041679;28;20422;-53
2023/08/07 06:19:39;;;;;;;4.40;1.30;;;;;;;;;;5056440;28;20525;-53
2023/08/07 06:22:05;;;;;;;3.17;1.52;;;;;;;;;;5051788;28;20209;-53
2023/08/07 06:24:32;;;;;;;1.58;1.13;;;;;;;;;;5048808;28;20235;-53
2023/08/07 06:26:58;;;;;;;3.35;1.50;;;;;;;;;;5056554;28;20387;-54
2023/08/07 06:29:24;;;;;;;1.35;1.10;;;;;;;;;;5056361;28;20217;-54
2023/08/07 06:31:52;;;;;;;2.33;1.38;;;;;;;;;;5050441;28;20209;-52
2023/08/07 06:34:18;;;;;;;4.32;1.45;;;;;;;;;;5051598;28;20505;-53
2023/08/07 06:36:44;;;;;;;6.13;1.50;;;;;;;;;;5048206;28;20221;-55
2023/08/07 06:39:10;;;;;;;3.35;1.10;;;;;;;;;;5056813;28;21024;-54
2023/08/07 06:41:38;;;;;;;3.58;1.40;;;;;;;;;;5054999;28;20299;-54
2023/08/07 06:44:05;;;;;;;3.72;1.52;;;;;;;;;;5054452;28;20339;-55
2023/08/07 06:46:31;;;;;;;4.50;1.80;;;;;;;;;;5050727;28;20440;-53
2023/08/07 06:48:59;;;;;;;2.55;1.45;;;;;;;;;;5049291;28;20223;-53
2023/08/07 06:51:25;;;;;;;3.45;1.33;;;;;;;;;;5043092;28;20423;-55
2023/08/07 06:53:51;;;;;;;4.22;1.67;;;;;;;;;;5048187;28;20412;-53
2023/08/07 06:56:17;;;;;;;1.83;1.35;;;;;;;;;;5050991;28;20530;-53
2023/08/07 06:58:44;;;;;;;2.88;1.40;;;;;;;;;;5056453;28;20213;-54
2023/08/07 07:01:10;;;;;;;3.20;1.30;;;;;;;;;;5054970;28;20209;-53
2023/08/07 07:03:36;;;;;;;1.38;1.27;;;;;;;;;;5045080;28;20229;-53
2023/08/07 07:06:04;;;;;;;6.15;1.30;;;;;;;;;;5050759;28;20446;-53
2023/08/07 07:08:30;;;;;;;3.45;1.33;;;;;;;;;;5055565;28;20467;-55
2023/08/07 07:10:58;;;;;;;3.28;1.70;;;;;;;;;;5049575;28;20217;-54
2023/08/07 07:13:24;;;;;;;3.00;1.45;;;;;;;;;;5054761;28;20272;-54
2023/08/07 07:15:53;;;;;;;2.90;1.30;;;;;;;;;;5055007;28;20607;-55
2023/08/07 07:18:19;;;;;;;1.33;1.23;;;;;;;;;;5047275;28;20209;-54
2023/08/07 07:20:46;;;;;;;6.78;1.58;;;;;;;;;;5056038;28;20220;-53
2023/08/07 07:23:13;;;;;;;2.17;1.50;;;;;;;;;;5050536;28;20512;-55
2023/08/07 07:25:39;;;;;;;1.65;1.13;;;;;;;;;;5046934;28;20329;-54
2023/08/07 07:28:06;;;;;;;4.75;1.33;;;;;;;;;;5056063;28;20225;-54
2023/08/07 07:30:32;;;;;;;1.20;1.10;;;;;;;;;;5054011;28;20533;-53
2023/08/07 07:32:58;;;;;;;5.70;1.45;;;;;;;;;;5046991;28;20466;-53
2023/08/07 07:35:25;;;;;;;2.25;1.10;;;;;;;;;;5055741;28;20205;-54
2023/08/07 07:37:51;;;;;;;4.28;1.27;;;;;;;;;;5051139;28;20217;-54
2023/08/07 07:40:18;;;;;;;4.05;1.27;;;;;;;;;;5055137;28;20685;-55
2023/08/07 07:42:45;;;;;;;1.27;1.20;;;;;;;;;;5054565;28;20217;-54
2023/08/07 07:45:11;;;;;;;2.33;1.20;;;;;;;;;;5049684;28;20231;-54
2023/08/07 07:47:37;;;;;;;1.38;1.27;;;;;;;;;;5054158;28;20540;-54
2023/08/07 07:50:08;;;;;;;1.30;1.20;;;;;;;;;;5057522;28;20223;-53
2023/08/07 07:52:34;;;;;;;0.95;0.95;;;;;;;;;;5048565;28;20256;-55
2023/08/07 07:55:00;;;;;;;3.42;1.85;;;;;;;;;;5047318;28;20211;-52
2023/08/07 07:57:28;;;;;;;2.58;1.60;;;;;;;;;;5054904;28;20215;-52
2023/08/07 07:59:54;;;;;;;1.33;1.30;;;;;;;;;;5059425;28;20433;-53
2023/08/07 08:02:22;;;;;;;1.30;1.23;;;;;;;;;;5050055;28;20209;-53
2023/08/07 08:04:48;;;;;;;2.58;1.30;;;;;;;;;;5051524;28;20233;-54
2023/08/07 08:07:15;;;;;;;3.17;1.50;;;;;;;;;;5059315;28;20272;-53
2023/08/07 08:09:41;;;;;;;4.70;1.33;;;;;;;;;;5052350;28;20209;-53
2023/08/07 08:12:08;;;;;;;2.15;1.38;;;;;;;;;;5052980;28;20232;-52
2023/08/07 08:14:36;;;;;;;1.30;1.05;;;;;;;;;;5058508;28;20212;-52
2023/08/07 08:17:02;;;;;;;1.85;1.33;;;;;;;;;;5053101;28;20516;-53
2023/08/07 08:19:28;;;;;;;5.88;1.00;;;;;;;;;;5043642;28;20568;-53
2023/08/07 08:21:55;;;;;;;1.30;1.20;;;;;;;;;;5051079;28;20404;-52
2023/08/07 08:24:21;;;;;;;1.63;0.90;;;;;;;;;;5044109;28;20580;-52
2023/08/07 08:26:47;;;;;;;3.92;0.85;;;;;;;;;;5048502;28;20239;-53
2023/08/07 08:29:15;;;;;;;1.75;0.88;;;;;;;;;;5051756;28;20487;-51
2023/08/07 08:31:42;;;;;;;5.28;1.15;;;;;;;;;;5051544;28;20551;-51
2023/08/07 08:34:08;;;;;;;1.85;0.85;;;;;;;;;;5047990;28;20204;-51
2023/08/07 08:36:35;;;;;;;1.55;1.00;;;;;;;;;;5054645;28;20209;-52
2023/08/07 08:39:01;;;;;;;2.17;1.00;;;;;;;;;;5047034;28;20256;-52
2023/08/07 08:41:28;;;;;;;2.03;0.88;;;;;;;;;;5054289;28;20454;-53
2023/08/07 08:43:55;;;;;;;1.60;1.10;;;;;;;;;;5056173;28;20574;-53
2023/08/07 08:46:22;;;;;;;1.10;1.00;;;;;;;;;;5054564;28;20410;-52
2023/08/07 08:48:51;;;;;;;1.35;0.95;;;;;;;;;;5054326;28;20222;-54
2023/08/07 08:51:18;;;;;;;1.75;0.82;;;;;;;;;;5057556;28;20578;-53
2023/08/07 08:53:45;;;;;;;0.80;0.80;;;;;;;;;;5043306;28;20220;-52
2023/08/07 08:56:12;;;;;;;1.00;0.95;;;;;;;;;;5055637;28;20245;-52
2023/08/07 08:58:38;;;;;;;1.00;1.00;;;;;;;;;;5050146;28;20205;-52
2023/08/07 09:01:05;;;;;;;2.05;1.08;;;;;;;;;;5058249;28;20416;-52
2023/08/07 09:03:31;;;;;;;0.90;0.90;;;;;;;;;;5042869;28;20210;-52
2023/08/07 09:06:00;;;;;;;1.20;0.80;;;;;;;;;;5051973;28;20279;-53
2023/08/07 09:08:28;;;;;;;1.90;1.05;;;;;;;;;;5049494;28;20218;-54
2023/08/07 09:10:55;;;;;;;1.33;0.85;;;;;;;;;;5055044;28;20232;-54
2023/08/07 09:13:23;;;;;;;2.38;0.93;;;;;;;;;;5057885;28;20414;-53
2023/08/07 09:15:50;;;;;;;2.50;0.80;;;;;;;;;;5058105;28;20540;-53
2023/08/07 09:18:17;;;;;;;0.95;0.77;;;;;;;;;;5054911;28;20209;-52
2023/08/07 09:20:44;;;;;;;0.95;0.85;;;;;;;;;;5057929;28;20540;-53
2023/08/07 09:23:12;;;;;;;0.85;0.80;;;;;;;;;;5050356;28;20216;-52
2023/08/07 09:25:39;;;;;;;1.17;1.00;;;;;;;;;;5048404;28;20225;-52
2023/08/07 09:28:05;;;;;;;0.95;0.60;;;;;;;;;;5052459;28;20405;-52
2023/08/07 09:30:32;;;;;;;1.45;0.88;;;;;;;;;;5049665;28;20280;-53
2023/08/07 09:32:59;;;;;;;3.33;0.70;;;;;;;;;;5043393;28;20208;-53
2023/08/07 09:35:25;;;;;;;0.85;0.85;;;;;;;;;;5045998;28;20205;-52
2023/08/07 09:37:51;;;;;;;2.10;0.88;;;;;;;;;;5055599;28;20212;-52
2023/08/07 09:40:20;;;;;;;3.60;1.30;;;;;;;;;;5040736;28;20209;-52
2023/08/07 09:42:50;;;;;;;0.90;0.90;;;;;;;;;;5053692;28;20537;-53
2023/08/07 09:45:20;;;;;;;0.80;0.80;;;;;;;;;;5048803;28;20437;-52
2023/08/07 09:47:46;;;;;;;1.77;1.13;;;;;;;;;;5043899;28;20221;-52
2023/08/07 09:50:16;;;;;;;1.88;0.90;;;;;;;;;;5051759;28;20209;-52
2023/08/07 09:52:43;;;;;;;2.08;1.10;;;;;;;;;;5054956;28;20212;-52
2023/08/07 09:55:09;;;;;;;1.58;1.10;;;;;;;;;;5053038;28;20217;-52
2023/08/07 09:57:37;;;;;;;1.20;1.00;;;;;;;;;;5050475;28;20454;-52
2023/08/07 10:00:11;;;;;;;2.85;0.90;;;;;;;;;;5041730;28;20303;-52
2023/08/07 10:02:37;;;;;;;2.10;1.20;;;;;;;;;;5055323;28;20215;-52
2023/08/07 10:05:05;;;;;;;2.03;0.98;;;;;;;;;;5050033;28;20221;-52
2023/08/07 10:07:31;;;;;;;2.35;0.88;;;;;;;;;;5057028;28;20209;-51
2023/08/07 10:09:59;;;;;;;3.88;1.10;;;;;;;;;;5053191;28;20217;-53
2023/08/07 10:12:26;;;;;;;1.42;1.08;;;;;;;;;;5050833;28;20209;-52
2023/08/07 10:14:54;;;;;;;4.07;1.10;;;;;;;;;;5042077;28;20217;-52
2023/08/07 10:17:22;;;;;;;2.05;0.98;;;;;;;;;;5049437;28;20213;-53
2023/08/07 10:19:48;;;;;;;2.33;0.90;;;;;;;;;;5046548;28;20559;-52
2023/08/07 10:22:15;;;;;;;2.15;0.98;;;;;;;;;;5053483;28;20586;-52
2023/08/07 10:24:43;;;;;;;1.23;1.23;;;;;;;;;;5047787;28;20233;-51
2023/08/07 10:27:10;;;;;;;0.82;0.80;;;;;;;;;;5048717;28;20470;-51
2023/08/07 10:29:37;;;;;;;4.47;1.38;;;;;;;;;;5050575;28;20217;-52
2023/08/07 10:32:05;;;;;;;1.15;0.80;;;;;;;;;;5056363;28;20543;-53
2023/08/07 10:34:34;;;;;;;2.30;0.90;;;;;;;;;;5048557;28;20408;-54
2023/08/07 10:37:00;;;;;;;1.20;1.20;;;;;;;;;;5050694;28;20244;-53
2023/08/07 10:39:26;;;;;;;0.85;0.85;;;;;;;;;;5044597;28;20502;-52
2023/08/07 10:41:53;;;;;;;1.67;0.77;;;;;;;;;;5042984;28;20221;-52
2023/08/07 10:44:20;;;;;;;1.20;1.10;;;;;;;;;;5055630;28;20215;-53
2023/08/07 10:46:51;;;;;;;2.83;1.38;;;;;;;;;;5053767;28;20569;-52
2023/08/07 10:49:32;;;;;;;0.80;0.80;;;;;;;;;;5051438;28;20382;-53
2023/08/07 10:51:58;;;;;;;3.08;1.00;;;;;;;;;;5053360;28;20258;-53
2023/08/07 10:54:26;;;;;;;5.25;1.35;;;;;;;;;;5055983;28;20229;-52
2023/08/07 10:56:53;;;;;;;3.40;1.17;;;;;;;;;;5056284;28;20220;-52
2023/08/07 10:59:19;;;;;;;0.90;0.90;;;;;;;;;;5055074;28;20234;-52
2023/08/07 11:01:51;;;;;;;3.65;1.17;;;;;;;;;;5049643;28;20221;-52
2023/08/07 11:04:17;;;;;;;1.95;1.08;;;;;;;;;;5050369;28;20392;-52
2023/08/07 11:06:47;;;;;;;4.50;1.25;;;;;;;;;;5055253;28;20220;-51
2023/08/07 11:09:13;;;;;;;1.48;1.10;;;;;;;;;;5055880;28;20208;-51
2023/08/07 11:11:40;;;;;;;1.08;0.98;;;;;;;;;;5043076;28;20408;-51
2023/08/07 11:14:07;;;;;;;1.95;1.17;;;;;;;;;;5054930;28;20296;-51
2023/08/07 11:16:35;;;;;;;1.40;1.15;;;;;;;;;;5053438;28;20205;-51
2023/08/07 11:19:01;;;;;;;5.70;1.02;;;;;;;;;;5049130;28;20520;-51
2023/08/07 11:21:28;;;;;;;1.35;1.23;;;;;;;;;;5056019;28;20385;-51
2023/08/07 11:23:55;;;;;;;2.70;1.13;;;;;;;;;;5050547;28;20213;-52
2023/08/07 11:26:22;;;;;;;1.90;1.15;;;;;;;;;;5042683;28;20533;-52
2023/08/07 11:28:48;;;;;;;1.48;1.05;;;;;;;;;;5043437;28;20305;-52
2023/08/07 11:31:15;;;;;;;5.72;1.33;;;;;;;;;;5039343;28;20208;-53
2023/08/07 11:33:41;;;;;;;1.10;1.00;;;;;;;;;;5038737;28;20216;-52
2023/08/07 11:36:10;;;;;;;1.58;1.27;;;;;;;;;;5048241;28;20544;-53
2023/08/07 11:38:38;;;;;;;2.75;0.98;;;;;;;;;;5062162;28;20212;-53
2023/08/07 11:41:06;;;;;;;3.65;1.30;;;;;;;;;;5062031;28;20211;-52
2023/08/07 11:43:33;;;;;;;1.10;1.10;;;;;;;;;;5060979;28;20220;-54
2023/08/07 11:46:01;;;;;;;1.17;0.80;;;;;;;;;;5061183;28;20217;-52
2023/08/07 11:48:28;;;;;;;1.20;1.15;;;;;;;;;;5061454;28;20207;-51
2023/08/07 11:50:55;;;;;;;1.67;1.05;;;;;;;;;;5061454;28;20201;-51
2023/08/07 11:53:21;;;;;;;0.95;0.90;;;;;;;;;;5061271;28;20197;-52
2023/08/07 11:55:49;;;;;;;1.10;1.00;;;;;;;;;;5061083;28;20197;-52
2023/08/07 11:58:16;;;;;;;1.20;1.00;;;;;;;;;;5062062;28;20197;-52
2023/08/07 12:00:44;;;;;;;1.80;1.17;;;;;;;;;;5061896;28;20208;-52
2023/08/07 12:03:25;;;;;;;1.73;1.23;;;;;;;;;;5061853;28;20220;-53
2023/08/07 12:05:51;;;;;;;1.35;1.25;;;;;;;;;;5061567;28;20547;-52
2023/08/07 12:08:17;;;;;;;1.88;1.02;;;;;;;;;;5061628;28;20197;-53
2023/08/07 12:10:44;;;;;;;1.90;1.13;;;;;;;;;;5061693;28;20216;-53
2023/08/07 12:13:10;;;;;;;1.65;1.35;;;;;;;;;;5061833;28;20205;-52
2023/08/07 12:15:39;;;;;;;2.05;1.25;;;;;;;;;;5061367;28;20192;-51
2023/08/07 12:18:08;;;;;;;1.55;1.33;;;;;;;;;;5061652;28;20399;-52
2023/08/07 12:20:34;;;;;;;0.90;0.90;;;;;;;;;;5061770;28;20202;-53
2023/08/07 12:23:00;;;;;;;1.20;1.20;;;;;;;;;;5061396;28;20201;-52
2023/08/07 12:25:26;;;;;;;1.33;0.90;;;;;;;;;;5061434;28;20217;-53
2023/08/07 12:27:53;;;;;;;1.50;1.23;;;;;;;;;;5061511;28;20288;-51
2023/08/07 12:30:19;;;;;;;1.85;1.58;;;;;;;;;;5064748;28;20197;-52
2023/08/07 12:32:46;;;;;;;1.83;1.40;;;;;;;;;;5065330;28;20201;-51
2023/08/07 12:35:13;;;;;;;1.33;1.30;;;;;;;;;;5065011;28;20199;-51
2023/08/07 12:37:39;;;;;;;1.17;1.17;;;;;;;;;;5065007;28;20572;-51
2023/08/07 12:40:06;;;;;;;1.88;1.20;;;;;;;;;;5065210;28;20228;-51
2023/08/07 12:42:32;;;;;;;2.00;1.30;;;;;;;;;;5065129;28;20508;-51
2023/08/07 12:44:59;;;;;;;3.95;1.30;;;;;;;;;;5064792;28;20268;-51
2023/08/07 12:47:25;;;;;;;0.98;0.98;;;;;;;;;;5064952;28;20451;-52
2023/08/07 12:49:52;;;;;;;1.17;1.10;;;;;;;;;;5065349;28;20213;-52
2023/08/07 12:52:19;;;;;;;2.13;1.38;;;;;;;;;;5064674;28;20205;-51
2023/08/07 12:54:45;;;;;;;1.02;1.00;;;;;;;;;;5064702;28;20209;-51
2023/08/07 12:57:11;;;;;;;2.50;1.35;;;;;;;;;;5064902;28;20193;-53
2023/08/07 12:59:37;;;;;;;1.20;1.20;;;;;;;;;;5064970;28;20395;-52
2023/08/07 13:02:04;;;;;;;1.05;1.05;;;;;;;;;;5065064;28;20341;-51
2023/08/07 13:04:33;;;;;;;1.35;1.23;;;;;;;;;;5064453;28;20504;-52
2023/08/07 13:07:00;;;;;;;1.38;1.13;;;;;;;;;;5064343;28;20232;-51
2023/08/07 13:09:26;;;;;;;1.15;1.15;;;;;;;;;;5064743;28;20203;-53
2023/08/07 13:11:53;;;;;;;1.33;1.25;;;;;;;;;;5064635;28;20202;-51
2023/08/07 13:14:19;;;;;;;1.95;1.02;;;;;;;;;;5064336;28;20205;-52
2023/08/07 13:16:45;;;;;;;1.90;1.33;;;;;;;;;;5064545;28;20210;-51
2023/08/07 13:19:12;;;;;;;3.65;1.17;;;;;;;;;;5064236;28;20205;-51
2023/08/07 13:21:38;;;;;;;4.07;1.40;;;;;;;;;;5064460;28;20203;-53
2023/08/07 13:24:05;;;;;;;2.55;1.20;;;;;;;;;;5064227;28;20201;-53
2023/08/07 13:26:32;;;;;;;1.33;1.13;;;;;;;;;;5064295;28;20225;-51
2023/08/07 13:28:58;;;;;;;2.25;1.40;;;;;;;;;;5064114;28;20222;-53
2023/08/07 13:31:24;;;;;;;1.40;1.30;;;;;;;;;;5064055;28;20442;-54
2023/08/07 13:33:51;;;;;;;1.23;1.13;;;;;;;;;;5063719;28;20201;-52
2023/08/07 13:36:17;;;;;;;1.73;1.10;;;;;;;;;;5064189;28;20193;-52
2023/08/07 13:38:43;;;;;;;2.67;1.10;;;;;;;;;;5064059;28;20204;-52
2023/08/07 13:41:11;;;;;;;1.05;0.95;;;;;;;;;;5062771;28;20201;-53
2023/08/07 13:43:37;;;;;;;1.13;1.13;;;;;;;;;;5063967;28;20197;-53
2023/08/07 13:46:04;;;;;;;3.85;1.20;;;;;;;;;;5063715;28;20446;-52
2023/08/07 13:48:33;;;;;;;1.25;1.20;;;;;;;;;;5063248;28;20458;-52
2023/08/07 13:51:00;;;;;;;1.42;1.10;;;;;;;;;;5063508;28;20201;-52
2023/08/07 13:53:29;;;;;;;2.40;1.45;;;;;;;;;;5056485;28;20403;-52
2023/08/07 13:55:55;;;;;;;1.30;1.30;;;;;;;;;;5061166;28;20247;-53
2023/08/07 13:58:22;;;;;;;1.20;1.20;;;;;;;;;;5061339;28;20513;-54
2023/08/07 14:00:49;;;;;;;2.28;1.35;;;;;;;;;;5061156;28;20212;-52
2023/08/07 14:03:15;;;;;;;1.92;1.10;;;;;;;;;;5060981;28;20213;-52
2023/08/07 14:05:41;;;;;;;1.80;1.20;;;;;;;;;;5060762;28;20564;-52
2023/08/07 14:08:10;;;;;;;1.90;1.20;;;;;;;;;;5060977;28;20219;-54
2023/08/07 14:10:38;;;;;;;1.20;1.10;;;;;;;;;;5060907;28;20493;-54
2023/08/07 14:13:05;;;;;;;3.10;1.20;;;;;;;;;;5060968;28;20227;-54
2023/08/07 14:15:33;;;;;;;4.05;1.33;;;;;;;;;;5060792;28;20216;-52
2023/08/07 14:17:59;;;;;;;1.40;1.30;;;;;;;;;;5061056;28;20407;-54
2023/08/07 14:20:26;;;;;;;1.80;1.30;;;;;;;;;;5061143;28;20474;-54
2023/08/07 14:22:52;;;;;;;1.10;1.00;;;;;;;;;;5060856;28;20279;-52
2023/08/07 14:25:21;;;;;;;1.33;1.17;;;;;;;;;;5060509;28;20209;-52
2023/08/07 14:27:47;;;;;;;2.08;1.30;;;;;;;;;;5060552;28;20235;-53
2023/08/07 14:30:14;;;;;;;0.98;0.98;;;;;;;;;;5060367;28;20219;-52
2023/08/07 14:32:42;;;;;;;1.00;1.00;;;;;;;;;;5057984;28;20428;-54
2023/08/07 14:35:09;;;;;;;1.23;1.23;;;;;;;;;;5052841;28;20224;-53
2023/08/07 14:37:35;;;;;;;2.55;1.35;;;;;;;;;;5050399;28;20205;-54
2023/08/07 14:40:02;;;;;;;1.85;1.05;;;;;;;;;;5049513;28;20440;-55